Flight Track Log - Related Links

Times and Time Zones

All times are in EDT time to prevent confusion due to time zone crossing. See the EJA831 flight status page for this flight to view local times or setup timezone preferences in your user account.

Time Position Orientation Groundspeed Altitude Reporting Facility
EDT Latitude Longitude Course Direction KTS MPH feet Rate Location/Type
Sun 06:08:21 PM 36.0764 -115.1203 91° East 167 192 3,600  Level Los Angeles Center
Sun 06:09:52 PM 36.0753 -114.9956 91° East 279 321 6,400 1,587 Climbing Los Angeles Center
Sun 06:10:22 PM 36.0717 -114.9681 99° East 271 312 6,800 982 Climbing Los Angeles Center
Sun 06:10:47 PM 36.0364 -114.9367 144° Southeast 266 306 7,300 1,935 Climbing Los Angeles Center
Sun 06:11:24 PM 35.9939 -114.9153 158° South 272 313 8,800 2,656 Climbing Los Angeles Center
Sun 06:11:48 PM 35.9656 -114.9097 171° South 263 303 10,000 2,613 Climbing Los Angeles Center
Sun 06:12:26 PM 35.9311 -114.9308 206° Southwest 275 316 11,500 2,164 Climbing Los Angeles Center
Sun 06:12:49 PM 35.9061 -114.9639 227° Southwest 289 333 12,200 1,161 Climbing Los Angeles Center
Sun 06:13:28 PM 35.8736 -115.0053 226° Southwest 289 333 12,700 535 Climbing Los Angeles Center
Sun 06:14:30 PM 35.8094 -115.0881 226° Southwest 319 367 13,100 1,403 Climbing Los Angeles Center
Sun 06:15:32 PM 35.7544 -115.1769 233° Southwest 323 372 15,600 2,274 Climbing Los Angeles Center
Sun 06:16:34 PM 35.6986 -115.2628 231° Southwest 321 369 17,800 1,872 Climbing Los Angeles Center
Sun 06:17:37 PM 35.6206 -115.3694 228° Southwest 341 392 19,500 1,536 Climbing Los Angeles Center
Sun 06:18:39 PM 35.5536 -115.4608 228° Southwest 353 406 21,000 1,210 Climbing Los Angeles Center
Sun 06:19:41 PM 35.4842 -115.5544 228° Southwest 365 420 22,000 484 Climbing Los Angeles Center
Sun 06:20:43 PM 35.4089 -115.6558 228° Southwest 380 437 22,000  Level Los Angeles Center
Sun 06:21:45 PM 35.3333 -115.7558 227° Southwest 394 453 22,000  Level Los Angeles Center
Sun 06:22:47 PM 35.2586 -115.8547 227° Southwest 397 457 22,000  Level Los Angeles Center
Sun 06:23:49 PM 35.1833 -115.9536 227° Southwest 397 457 22,000  Level Los Angeles Center
Sun 06:24:51 PM 35.1081 -116.0539 227° Southwest 400 460 22,000  Level Los Angeles Center
Sun 06:25:54 PM 35.0308 -116.1542 227° Southwest 402 463 22,000  Level Los Angeles Center
Sun 06:26:56 PM 34.9386 -116.2747 227° Southwest 404 465 22,000  Level Los Angeles Center
Sun 06:27:58 PM 34.8619 -116.3739 227° Southwest 404 465 22,000  Level Los Angeles Center
Sun 06:29:00 PM 34.7861 -116.4725 227° Southwest 401 461 22,000  Level Los Angeles Center
Sun 06:30:02 PM 34.7119 -116.5658 226° Southwest 392 451 22,000 -387 Level Los Angeles Center
Sun 06:31:04 PM 34.6342 -116.6625 226° Southwest 396 456 21,200 -1,403 Descending Los Angeles Center
Sun 06:32:06 PM 34.5564 -116.7569 225° Southwest 395 455 19,100 -2,032 Descending Los Angeles Center
Sun 06:33:08 PM 34.4694 -116.8617 225° Southwest 372 428 17,000 -1,935 Descending Los Angeles Center
Sun 06:34:10 PM 34.4022 -116.9442 225° Southwest 349 402 15,100 -1,790 Descending Los Angeles Center
Sun 06:35:12 PM 34.3358 -117.0261 226° Southwest 340 391 13,300 -1,824 Descending Los Angeles Center
Sun 06:36:15 PM 34.2706 -117.1044 225° Southwest 333 383 11,300 -1,584 Descending Los Angeles Center
Sun 06:37:17 PM 34.1961 -117.1867 222° Southwest 318 366 10,000 -1,161 Descending Los Angeles Center
Sun 06:38:19 PM 34.1322 -117.2308 210° Southwest 266 306 8,900 -1,016 Descending Los Angeles Center
Sun 06:39:21 PM 34.0728 -117.2631 204° Southwest 235 270 7,900 -1,403 Descending Los Angeles Center
Sun 06:40:23 PM 34.0211 -117.2919 205° Southwest 207 238 6,000 -1,645 Descending Los Angeles Center
Sun 06:41:25 PM 33.9722 -117.3208 206° Southwest 200 230 4,500 -1,500 Descending Los Angeles Center
Sun 06:42:27 PM 33.9389 -117.3553 221° Southwest 179 206 2,900 -1,523 Descending Los Angeles Center
Sun 06:43:35 PM 33.9500 -117.4167 282° West 118 136 1,200 -1,500 Descending Southern California TRACON
Sun 06:45:00 PM 33.9500 -117.4333 220° Southwest  Level FlightAware Approximate
Sun 06:52:00 PM 33.9519 -117.4451 220° Southwest  Level Estimated
Sun 06:53:00 PM 33.9519 -117.4451 220° Southwest  Level Estimated

Login

Don't have an account? Register now (free) for customized features, flight alerts, and more!